sensor_id;sensor_type;location;lat;lon;timestamp;P1;durP1;ratioP1;P2;durP2;ratioP2
32250;SDS011;41295;48.518;9.206;2023-07-31T00:00:46;4.15;;;1.70;;
32250;SDS011;41295;48.518;9.206;2023-07-31T00:02:50;3.78;;;1.60;;
32250;SDS011;41295;48.518;9.206;2023-07-31T00:04:57;9.18;;;1.70;;
32250;SDS011;41295;48.518;9.206;2023-07-31T00:06:59;4.90;;;1.60;;
32250;SDS011;41295;48.518;9.206;2023-07-31T00:09:02;5.30;;;2.00;;
32250;SDS011;41295;48.518;9.206;2023-07-31T00:11:05;4.90;;;1.80;;
32250;SDS011;41295;48.518;9.206;2023-07-31T00:13:07;4.18;;;1.80;;
32250;SDS011;41295;48.518;9.206;2023-07-31T00:15:10;7.85;;;1.90;;
32250;SDS011;41295;48.518;9.206;2023-07-31T00:17:14;4.65;;;1.67;;
32250;SDS011;41295;48.518;9.206;2023-07-31T00:19:18;6.65;;;2.05;;
32250;SDS011;41295;48.518;9.206;2023-07-31T00:21:20;4.45;;;1.80;;
32250;SDS011;41295;48.518;9.206;2023-07-31T00:23:23;9.52;;;1.80;;
32250;SDS011;41295;48.518;9.206;2023-07-31T00:25:26;5.78;;;1.52;;
32250;SDS011;41295;48.518;9.206;2023-07-31T00:27:27;4.43;;;1.60;;
32250;SDS011;41295;48.518;9.206;2023-07-31T00:29:30;5.82;;;1.45;;
32250;SDS011;41295;48.518;9.206;2023-07-31T00:31:33;6.72;;;1.88;;
32250;SDS011;41295;48.518;9.206;2023-07-31T00:33:36;2.35;;;1.58;;
32250;SDS011;41295;48.518;9.206;2023-07-31T00:35:40;6.47;;;2.10;;
32250;SDS011;41295;48.518;9.206;2023-07-31T00:37:42;8.23;;;2.17;;
32250;SDS011;41295;48.518;9.206;2023-07-31T00:41:46;4.40;;;1.52;;
32250;SDS011;41295;48.518;9.206;2023-07-31T00:43:49;4.57;;;1.55;;
32250;SDS011;41295;48.518;9.206;2023-07-31T00:45:52;4.78;;;1.85;;
32250;SDS011;41295;48.518;9.206;2023-07-31T00:47:54;6.70;;;2.03;;
32250;SDS011;41295;48.518;9.206;2023-07-31T00:49:58;6.28;;;1.65;;
32250;SDS011;41295;48.518;9.206;2023-07-31T00:52:02;8.10;;;1.88;;
32250;SDS011;41295;48.518;9.206;2023-07-31T00:54:04;5.30;;;1.80;;
32250;SDS011;41295;48.518;9.206;2023-07-31T00:56:08;4.03;;;1.83;;
32250;SDS011;41295;48.518;9.206;2023-07-31T00:58:11;7.43;;;1.67;;
32250;SDS011;41295;48.518;9.206;2023-07-31T01:00:13;3.97;;;1.90;;
32250;SDS011;41295;48.518;9.206;2023-07-31T01:02:15;3.22;;;1.77;;
32250;SDS011;41295;48.518;9.206;2023-07-31T01:04:18;7.25;;;1.58;;
32250;SDS011;41295;48.518;9.206;2023-07-31T01:06:23;4.18;;;1.48;;
32250;SDS011;41295;48.518;9.206;2023-07-31T01:08:42;3.50;;;1.70;;
32250;SDS011;41295;48.518;9.206;2023-07-31T01:10:50;5.15;;;1.73;;
32250;SDS011;41295;48.518;9.206;2023-07-31T01:12:57;5.68;;;1.90;;
32250;SDS011;41295;48.518;9.206;2023-07-31T01:15:04;4.03;;;1.80;;
32250;SDS011;41295;48.518;9.206;2023-07-31T01:17:07;4.63;;;1.73;;
32250;SDS011;41295;48.518;9.206;2023-07-31T01:19:10;4.38;;;1.80;;
32250;SDS011;41295;48.518;9.206;2023-07-31T01:21:20;7.30;;;1.73;;
32250;SDS011;41295;48.518;9.206;2023-07-31T01:23:35;5.82;;;2.10;;
32250;SDS011;41295;48.518;9.206;2023-07-31T01:25:56;6.97;;;1.63;;
32250;SDS011;41295;48.518;9.206;2023-07-31T01:28:07;6.40;;;2.15;;
32250;SDS011;41295;48.518;9.206;2023-07-31T01:30:14;7.07;;;1.70;;
32250;SDS011;41295;48.518;9.206;2023-07-31T01:32:19;3.80;;;1.85;;
32250;SDS011;41295;48.518;9.206;2023-07-31T01:34:22;2.90;;;1.48;;
32250;SDS011;41295;48.518;9.206;2023-07-31T01:36:25;4.88;;;1.73;;
32250;SDS011;41295;48.518;9.206;2023-07-31T01:38:28;5.63;;;1.77;;
32250;SDS011;41295;48.518;9.206;2023-07-31T01:40:31;5.15;;;1.80;;
32250;SDS011;41295;48.518;9.206;2023-07-31T01:42:34;5.07;;;1.60;;
32250;SDS011;41295;48.518;9.206;2023-07-31T01:44:37;4.22;;;1.60;;
32250;SDS011;41295;48.518;9.206;2023-07-31T01:46:39;6.35;;;1.90;;
32250;SDS011;41295;48.518;9.206;2023-07-31T01:48:42;3.97;;;1.77;;
32250;SDS011;41295;48.518;9.206;2023-07-31T01:50:45;4.15;;;1.80;;
32250;SDS011;41295;48.518;9.206;2023-07-31T01:52:48;4.35;;;1.90;;
32250;SDS011;41295;48.518;9.206;2023-07-31T01:54:50;6.40;;;2.20;;
32250;SDS011;41295;48.518;9.206;2023-07-31T01:56:54;4.13;;;1.77;;
32250;SDS011;41295;48.518;9.206;2023-07-31T01:58:58;7.07;;;2.10;;
32250;SDS011;41295;48.518;9.206;2023-07-31T02:01:00;3.33;;;1.77;;
32250;SDS011;41295;48.518;9.206;2023-07-31T02:03:03;7.63;;;2.10;;
32250;SDS011;41295;48.518;9.206;2023-07-31T02:05:06;2.47;;;1.70;;
32250;SDS011;41295;48.518;9.206;2023-07-31T02:07:09;9.63;;;2.65;;
32250;SDS011;41295;48.518;9.206;2023-07-31T02:09:11;4.20;;;1.95;;
32250;SDS011;41295;48.518;9.206;2023-07-31T02:11:14;6.55;;;1.77;;
32250;SDS011;41295;48.518;9.206;2023-07-31T02:13:17;8.73;;;1.90;;
32250;SDS011;41295;48.518;9.206;2023-07-31T02:15:21;5.53;;;1.85;;
32250;SDS011;41295;48.518;9.206;2023-07-31T02:17:24;7.45;;;2.13;;
32250;SDS011;41295;48.518;9.206;2023-07-31T02:19:27;5.63;;;1.95;;
32250;SDS011;41295;48.518;9.206;2023-07-31T02:21:30;5.75;;;2.22;;
32250;SDS011;41295;48.518;9.206;2023-07-31T02:23:32;5.53;;;1.83;;
32250;SDS011;41295;48.518;9.206;2023-07-31T02:25:35;4.15;;;1.80;;
32250;SDS011;41295;48.518;9.206;2023-07-31T02:27:38;4.38;;;1.80;;
32250;SDS011;41295;48.518;9.206;2023-07-31T02:29:40;5.97;;;1.95;;
32250;SDS011;41295;48.518;9.206;2023-07-31T02:31:44;7.00;;;1.95;;
32250;SDS011;41295;48.518;9.206;2023-07-31T02:33:46;10.50;;;2.20;;
32250;SDS011;41295;48.518;9.206;2023-07-31T02:35:49;4.82;;;1.98;;
32250;SDS011;41295;48.518;9.206;2023-07-31T02:37:51;10.38;;;2.42;;
32250;SDS011;41295;48.518;9.206;2023-07-31T02:39:54;6.90;;;1.88;;
32250;SDS011;41295;48.518;9.206;2023-07-31T02:41:57;5.85;;;2.28;;
32250;SDS011;41295;48.518;9.206;2023-07-31T02:43:59;4.85;;;1.83;;
32250;SDS011;41295;48.518;9.206;2023-07-31T02:46:02;5.22;;;1.92;;
32250;SDS011;41295;48.518;9.206;2023-07-31T02:48:06;10.07;;;2.05;;
32250;SDS011;41295;48.518;9.206;2023-07-31T02:50:09;5.97;;;2.08;;
32250;SDS011;41295;48.518;9.206;2023-07-31T02:52:12;8.23;;;2.33;;
32250;SDS011;41295;48.518;9.206;2023-07-31T02:54:15;7.10;;;1.98;;
32250;SDS011;41295;48.518;9.206;2023-07-31T02:56:17;6.78;;;2.10;;
32250;SDS011;41295;48.518;9.206;2023-07-31T02:58:20;7.05;;;1.85;;
32250;SDS011;41295;48.518;9.206;2023-07-31T03:02:24;4.30;;;1.80;;
32250;SDS011;41295;48.518;9.206;2023-07-31T03:04:28;4.32;;;1.80;;
32250;SDS011;41295;48.518;9.206;2023-07-31T03:06:31;4.78;;;1.90;;
32250;SDS011;41295;48.518;9.206;2023-07-31T03:10:35;5.45;;;2.38;;
32250;SDS011;41295;48.518;9.206;2023-07-31T03:12:38;5.60;;;1.70;;
32250;SDS011;41295;48.518;9.206;2023-07-31T03:14:40;3.67;;;1.85;;
32250;SDS011;41295;48.518;9.206;2023-07-31T03:16:43;7.18;;;2.10;;
32250;SDS011;41295;48.518;9.206;2023-07-31T03:18:45;5.18;;;1.77;;
32250;SDS011;41295;48.518;9.206;2023-07-31T03:20:49;4.82;;;1.83;;
32250;SDS011;41295;48.518;9.206;2023-07-31T03:22:52;4.18;;;1.90;;
32250;SDS011;41295;48.518;9.206;2023-07-31T03:24:55;5.05;;;1.77;;
32250;SDS011;41295;48.518;9.206;2023-07-31T03:26:57;5.18;;;2.05;;
32250;SDS011;41295;48.518;9.206;2023-07-31T03:29:00;3.67;;;1.90;;
32250;SDS011;41295;48.518;9.206;2023-07-31T03:31:03;5.25;;;2.17;;
32250;SDS011;41295;48.518;9.206;2023-07-31T03:33:05;9.40;;;2.30;;
32250;SDS011;41295;48.518;9.206;2023-07-31T03:35:07;4.47;;;2.33;;
32250;SDS011;41295;48.518;9.206;2023-07-31T03:39:13;6.03;;;2.22;;
32250;SDS011;41295;48.518;9.206;2023-07-31T03:41:16;11.32;;;2.28;;
32250;SDS011;41295;48.518;9.206;2023-07-31T03:43:18;3.42;;;2.17;;
32250;SDS011;41295;48.518;9.206;2023-07-31T03:45:21;6.63;;;2.20;;
32250;SDS011;41295;48.518;9.206;2023-07-31T03:47:24;5.05;;;2.33;;
32250;SDS011;41295;48.518;9.206;2023-07-31T03:49:26;6.40;;;1.80;;
32250;SDS011;41295;48.518;9.206;2023-07-31T03:51:29;21.23;;;2.20;;
32250;SDS011;41295;48.518;9.206;2023-07-31T03:53:33;10.23;;;2.30;;
32250;SDS011;41295;48.518;9.206;2023-07-31T03:55:36;6.65;;;2.35;;
32250;SDS011;41295;48.518;9.206;2023-07-31T03:59:40;3.97;;;1.83;;
32250;SDS011;41295;48.518;9.206;2023-07-31T04:01:42;5.38;;;1.70;;
32250;SDS011;41295;48.518;9.206;2023-07-31T04:03:45;5.63;;;2.15;;
32250;SDS011;41295;48.518;9.206;2023-07-31T04:05:48;4.60;;;2.28;;
32250;SDS011;41295;48.518;9.206;2023-07-31T04:07:50;4.93;;;2.28;;
32250;SDS011;41295;48.518;9.206;2023-07-31T04:09:55;8.73;;;2.50;;
32250;SDS011;41295;48.518;9.206;2023-07-31T04:11:57;8.43;;;2.42;;
32250;SDS011;41295;48.518;9.206;2023-07-31T04:14:00;6.43;;;2.45;;
32250;SDS011;41295;48.518;9.206;2023-07-31T04:16:03;7.85;;;2.00;;
32250;SDS011;41295;48.518;9.206;2023-07-31T04:18:06;4.90;;;2.42;;
32250;SDS011;41295;48.518;9.206;2023-07-31T04:20:08;6.15;;;2.42;;
32250;SDS011;41295;48.518;9.206;2023-07-31T04:22:12;7.05;;;2.30;;
32250;SDS011;41295;48.518;9.206;2023-07-31T04:24:14;8.90;;;1.92;;
32250;SDS011;41295;48.518;9.206;2023-07-31T04:26:24;3.72;;;1.80;;
32250;SDS011;41295;48.518;9.206;2023-07-31T04:28:27;12.35;;;2.10;;
32250;SDS011;41295;48.518;9.206;2023-07-31T04:30:32;6.50;;;2.20;;
32250;SDS011;41295;48.518;9.206;2023-07-31T04:32:35;5.15;;;2.10;;
32250;SDS011;41295;48.518;9.206;2023-07-31T04:34:38;8.75;;;2.20;;
32250;SDS011;41295;48.518;9.206;2023-07-31T04:36:41;6.32;;;2.35;;
32250;SDS011;41295;48.518;9.206;2023-07-31T04:38:43;5.15;;;2.20;;
32250;SDS011;41295;48.518;9.206;2023-07-31T04:40:46;5.47;;;1.92;;
32250;SDS011;41295;48.518;9.206;2023-07-31T04:42:49;5.32;;;2.20;;
32250;SDS011;41295;48.518;9.206;2023-07-31T04:44:51;6.38;;;2.40;;
32250;SDS011;41295;48.518;9.206;2023-07-31T04:46:55;9.55;;;2.67;;
32250;SDS011;41295;48.518;9.206;2023-07-31T04:48:57;3.90;;;2.30;;
32250;SDS011;41295;48.518;9.206;2023-07-31T04:51:00;8.93;;;2.38;;
32250;SDS011;41295;48.518;9.206;2023-07-31T04:53:03;4.80;;;2.15;;
32250;SDS011;41295;48.518;9.206;2023-07-31T04:55:06;4.72;;;2.35;;
32250;SDS011;41295;48.518;9.206;2023-07-31T04:57:09;6.10;;;2.30;;
32250;SDS011;41295;48.518;9.206;2023-07-31T04:59:12;4.82;;;2.28;;
32250;SDS011;41295;48.518;9.206;2023-07-31T05:01:15;5.38;;;2.20;;
32250;SDS011;41295;48.518;9.206;2023-07-31T05:03:18;6.10;;;2.17;;
32250;SDS011;41295;48.518;9.206;2023-07-31T05:05:21;4.70;;;2.33;;
32250;SDS011;41295;48.518;9.206;2023-07-31T05:07:24;8.25;;;2.42;;
32250;SDS011;41295;48.518;9.206;2023-07-31T05:09:26;5.57;;;2.20;;
32250;SDS011;41295;48.518;9.206;2023-07-31T05:11:29;12.43;;;2.63;;
32250;SDS011;41295;48.518;9.206;2023-07-31T05:13:31;4.28;;;1.98;;
32250;SDS011;41295;48.518;9.206;2023-07-31T05:15:35;5.63;;;2.28;;
32250;SDS011;41295;48.518;9.206;2023-07-31T05:17:38;9.10;;;2.47;;
32250;SDS011;41295;48.518;9.206;2023-07-31T05:19:41;4.20;;;2.15;;
32250;SDS011;41295;48.518;9.206;2023-07-31T05:21:43;7.15;;;2.50;;
32250;SDS011;41295;48.518;9.206;2023-07-31T05:23:46;5.20;;;2.03;;
32250;SDS011;41295;48.518;9.206;2023-07-31T05:25:49;5.68;;;2.15;;
32250;SDS011;41295;48.518;9.206;2023-07-31T05:27:51;7.07;;;2.00;;
32250;SDS011;41295;48.518;9.206;2023-07-31T05:29:54;5.45;;;2.00;;
32250;SDS011;41295;48.518;9.206;2023-07-31T05:31:59;6.18;;;2.60;;
32250;SDS011;41295;48.518;9.206;2023-07-31T05:34:02;7.75;;;2.20;;
32250;SDS011;41295;48.518;9.206;2023-07-31T05:36:04;8.82;;;2.13;;
32250;SDS011;41295;48.518;9.206;2023-07-31T05:38:07;5.30;;;2.10;;
32250;SDS011;41295;48.518;9.206;2023-07-31T05:40:10;4.53;;;2.22;;
32250;SDS011;41295;48.518;9.206;2023-07-31T05:42:13;3.42;;;2.00;;
32250;SDS011;41295;48.518;9.206;2023-07-31T05:44:16;6.30;;;2.20;;
32250;SDS011;41295;48.518;9.206;2023-07-31T05:46:18;6.97;;;2.20;;
32250;SDS011;41295;48.518;9.206;2023-07-31T05:48:22;6.47;;;2.28;;
32250;SDS011;41295;48.518;9.206;2023-07-31T05:50:25;5.88;;;2.30;;
32250;SDS011;41295;48.518;9.206;2023-07-31T05:52:28;5.10;;;2.30;;
32250;SDS011;41295;48.518;9.206;2023-07-31T05:54:31;7.43;;;2.75;;
32250;SDS011;41295;48.518;9.206;2023-07-31T05:56:34;5.63;;;2.65;;
32250;SDS011;41295;48.518;9.206;2023-07-31T05:58:37;5.30;;;2.63;;
32250;SDS011;41295;48.518;9.206;2023-07-31T06:00:39;8.45;;;3.00;;
32250;SDS011;41295;48.518;9.206;2023-07-31T06:02:43;7.18;;;2.97;;
32250;SDS011;41295;48.518;9.206;2023-07-31T06:04:47;7.00;;;2.65;;
32250;SDS011;41295;48.518;9.206;2023-07-31T06:06:50;7.38;;;2.80;;
32250;SDS011;41295;48.518;9.206;2023-07-31T06:08:52;6.43;;;2.72;;
32250;SDS011;41295;48.518;9.206;2023-07-31T06:10:55;7.97;;;3.33;;
32250;SDS011;41295;48.518;9.206;2023-07-31T06:12:58;13.38;;;3.47;;
32250;SDS011;41295;48.518;9.206;2023-07-31T06:15:01;6.40;;;2.67;;
32250;SDS011;41295;48.518;9.206;2023-07-31T06:17:05;5.03;;;2.42;;
32250;SDS011;41295;48.518;9.206;2023-07-31T06:19:07;5.45;;;2.40;;
32250;SDS011;41295;48.518;9.206;2023-07-31T06:21:12;6.32;;;2.15;;
32250;SDS011;41295;48.518;9.206;2023-07-31T06:23:14;7.13;;;2.45;;
32250;SDS011;41295;48.518;9.206;2023-07-31T06:25:19;5.15;;;2.00;;
32250;SDS011;41295;48.518;9.206;2023-07-31T06:27:22;7.18;;;2.47;;
32250;SDS011;41295;48.518;9.206;2023-07-31T06:29:25;6.25;;;2.15;;
32250;SDS011;41295;48.518;9.206;2023-07-31T06:31:27;4.75;;;1.80;;
32250;SDS011;41295;48.518;9.206;2023-07-31T06:33:30;8.07;;;2.72;;
32250;SDS011;41295;48.518;9.206;2023-07-31T06:35:33;4.75;;;2.38;;
32250;SDS011;41295;48.518;9.206;2023-07-31T06:37:37;3.08;;;2.10;;
32250;SDS011;41295;48.518;9.206;2023-07-31T06:39:41;4.47;;;2.35;;
32250;SDS011;41295;48.518;9.206;2023-07-31T06:41:44;8.15;;;1.95;;
32250;SDS011;41295;48.518;9.206;2023-07-31T06:43:46;7.63;;;2.00;;
32250;SDS011;41295;48.518;9.206;2023-07-31T06:45:49;8.07;;;2.40;;
32250;SDS011;41295;48.518;9.206;2023-07-31T06:47:52;7.20;;;3.00;;
32250;SDS011;41295;48.518;9.206;2023-07-31T06:49:55;7.15;;;2.63;;
32250;SDS011;41295;48.518;9.206;2023-07-31T06:51:58;8.57;;;2.50;;
32250;SDS011;41295;48.518;9.206;2023-07-31T06:54:02;6.82;;;2.30;;
32250;SDS011;41295;48.518;9.206;2023-07-31T06:56:05;9.27;;;2.50;;
32250;SDS011;41295;48.518;9.206;2023-07-31T06:58:07;6.32;;;2.17;;
32250;SDS011;41295;48.518;9.206;2023-07-31T07:00:10;5.03;;;2.30;;
32250;SDS011;41295;48.518;9.206;2023-07-31T07:02:13;5.20;;;1.92;;
32250;SDS011;41295;48.518;9.206;2023-07-31T07:04:15;6.88;;;2.67;;
32250;SDS011;41295;48.518;9.206;2023-07-31T07:06:18;6.07;;;2.00;;
32250;SDS011;41295;48.518;9.206;2023-07-31T07:08:21;8.48;;;2.10;;
32250;SDS011;41295;48.518;9.206;2023-07-31T07:10:25;7.82;;;2.40;;
32250;SDS011;41295;48.518;9.206;2023-07-31T07:12:28;6.30;;;1.95;;
32250;SDS011;41295;48.518;9.206;2023-07-31T07:14:32;6.75;;;2.13;;
32250;SDS011;41295;48.518;9.206;2023-07-31T07:16:34;7.30;;;2.17;;
32250;SDS011;41295;48.518;9.206;2023-07-31T07:18:37;5.60;;;1.80;;
32250;SDS011;41295;48.518;9.206;2023-07-31T07:20:51;4.10;;;2.00;;
32250;SDS011;41295;48.518;9.206;2023-07-31T07:22:55;6.07;;;2.20;;
32250;SDS011;41295;48.518;9.206;2023-07-31T07:24:57;3.85;;;2.10;;
32250;SDS011;41295;48.518;9.206;2023-07-31T07:29:03;3.38;;;1.90;;
32250;SDS011;41295;48.518;9.206;2023-07-31T07:31:08;4.07;;;1.88;;
32250;SDS011;41295;48.518;9.206;2023-07-31T07:33:11;6.13;;;2.63;;
32250;SDS011;41295;48.518;9.206;2023-07-31T07:35:14;5.07;;;2.03;;
32250;SDS011;41295;48.518;9.206;2023-07-31T07:37:16;5.40;;;2.10;;
32250;SDS011;41295;48.518;9.206;2023-07-31T07:39:19;3.63;;;2.13;;
32250;SDS011;41295;48.518;9.206;2023-07-31T07:41:22;5.80;;;2.03;;
32250;SDS011;41295;48.518;9.206;2023-07-31T07:43:26;5.38;;;2.00;;
32250;SDS011;41295;48.518;9.206;2023-07-31T07:45:29;7.38;;;2.30;;
32250;SDS011;41295;48.518;9.206;2023-07-31T07:47:31;5.82;;;2.13;;
32250;SDS011;41295;48.518;9.206;2023-07-31T07:49:34;6.70;;;2.25;;
32250;SDS011;41295;48.518;9.206;2023-07-31T07:51:38;4.03;;;2.35;;
32250;SDS011;41295;48.518;9.206;2023-07-31T07:53:41;7.00;;;2.30;;
32250;SDS011;41295;48.518;9.206;2023-07-31T07:55:44;4.65;;;2.05;;
32250;SDS011;41295;48.518;9.206;2023-07-31T07:57:46;7.60;;;2.50;;
32250;SDS011;41295;48.518;9.206;2023-07-31T07:59:52;3.63;;;2.03;;
32250;SDS011;41295;48.518;9.206;2023-07-31T08:01:55;8.60;;;2.25;;
32250;SDS011;41295;48.518;9.206;2023-07-31T08:03:58;6.28;;;2.15;;
32250;SDS011;41295;48.518;9.206;2023-07-31T08:06:02;5.32;;;2.10;;
32250;SDS011;41295;48.518;9.206;2023-07-31T08:08:04;9.27;;;2.30;;
32250;SDS011;41295;48.518;9.206;2023-07-31T08:10:07;4.80;;;2.15;;
32250;SDS011;41295;48.518;9.206;2023-07-31T08:12:10;6.82;;;1.92;;
32250;SDS011;41295;48.518;9.206;2023-07-31T08:14:13;9.43;;;2.33;;
32250;SDS011;41295;48.518;9.206;2023-07-31T08:16:17;9.23;;;2.80;;
32250;SDS011;41295;48.518;9.206;2023-07-31T08:18:20;4.13;;;2.00;;
32250;SDS011;41295;48.518;9.206;2023-07-31T08:20:22;7.50;;;2.47;;
32250;SDS011;41295;48.518;9.206;2023-07-31T08:22:25;7.35;;;2.13;;
32250;SDS011;41295;48.518;9.206;2023-07-31T08:24:28;7.22;;;2.20;;
32250;SDS011;41295;48.518;9.206;2023-07-31T08:26:30;8.20;;;2.47;;
32250;SDS011;41295;48.518;9.206;2023-07-31T08:28:33;8.30;;;2.63;;
32250;SDS011;41295;48.518;9.206;2023-07-31T08:30:37;5.75;;;2.22;;
32250;SDS011;41295;48.518;9.206;2023-07-31T08:32:42;5.80;;;2.20;;
32250;SDS011;41295;48.518;9.206;2023-07-31T08:34:45;3.80;;;1.85;;
32250;SDS011;41295;48.518;9.206;2023-07-31T08:36:47;7.05;;;2.70;;
32250;SDS011;41295;48.518;9.206;2023-07-31T08:38:50;7.00;;;2.47;;
32250;SDS011;41295;48.518;9.206;2023-07-31T08:40:52;6.55;;;2.30;;
32250;SDS011;41295;48.518;9.206;2023-07-31T08:42:55;7.25;;;2.30;;
32250;SDS011;41295;48.518;9.206;2023-07-31T08:45:03;9.48;;;2.35;;
32250;SDS011;41295;48.518;9.206;2023-07-31T08:47:07;8.25;;;2.25;;
32250;SDS011;41295;48.518;9.206;2023-07-31T08:49:11;5.07;;;2.15;;
32250;SDS011;41295;48.518;9.206;2023-07-31T08:51:14;9.10;;;2.25;;
32250;SDS011;41295;48.518;9.206;2023-07-31T08:53:17;8.38;;;2.40;;
32250;SDS011;41295;48.518;9.206;2023-07-31T08:55:20;8.10;;;2.38;;
32250;SDS011;41295;48.518;9.206;2023-07-31T08:57:24;5.10;;;2.10;;
32250;SDS011;41295;48.518;9.206;2023-07-31T08:59:30;9.07;;;2.53;;
32250;SDS011;41295;48.518;9.206;2023-07-31T09:01:35;6.70;;;2.08;;
32250;SDS011;41295;48.518;9.206;2023-07-31T09:03:42;6.47;;;2.80;;
32250;SDS011;41295;48.518;9.206;2023-07-31T09:05:47;5.55;;;2.22;;
32250;SDS011;41295;48.518;9.206;2023-07-31T09:07:50;5.05;;;2.05;;
32250;SDS011;41295;48.518;9.206;2023-07-31T09:09:52;8.27;;;2.20;;
32250;SDS011;41295;48.518;9.206;2023-07-31T09:11:55;7.07;;;2.30;;
32250;SDS011;41295;48.518;9.206;2023-07-31T09:13:59;6.45;;;2.25;;
32250;SDS011;41295;48.518;9.206;2023-07-31T09:16:09;9.10;;;2.15;;
32250;SDS011;41295;48.518;9.206;2023-07-31T09:18:12;8.60;;;3.08;;
32250;SDS011;41295;48.518;9.206;2023-07-31T09:20:19;6.07;;;2.28;;
32250;SDS011;41295;48.518;9.206;2023-07-31T09:22:32;5.43;;;2.17;;
32250;SDS011;41295;48.518;9.206;2023-07-31T09:24:38;5.72;;;2.40;;
32250;SDS011;41295;48.518;9.206;2023-07-31T09:26:40;7.47;;;2.50;;
32250;SDS011;41295;48.518;9.206;2023-07-31T09:28:43;6.82;;;2.60;;
32250;SDS011;41295;48.518;9.206;2023-07-31T09:30:47;6.82;;;2.67;;
32250;SDS011;41295;48.518;9.206;2023-07-31T09:32:51;6.03;;;2.75;;
32250;SDS011;41295;48.518;9.206;2023-07-31T09:35:02;10.82;;;2.78;;
32250;SDS011;41295;48.518;9.206;2023-07-31T09:37:15;7.78;;;3.03;;
32250;SDS011;41295;48.518;9.206;2023-07-31T09:39:20;6.70;;;2.50;;
32250;SDS011;41295;48.518;9.206;2023-07-31T09:41:22;7.53;;;2.50;;
32250;SDS011;41295;48.518;9.206;2023-07-31T09:43:25;13.25;;;3.03;;
32250;SDS011;41295;48.518;9.206;2023-07-31T09:45:28;7.70;;;2.20;;
32250;SDS011;41295;48.518;9.206;2023-07-31T09:47:45;8.02;;;2.55;;
32250;SDS011;41295;48.518;9.206;2023-07-31T09:49:49;7.25;;;2.42;;
32250;SDS011;41295;48.518;9.206;2023-07-31T09:51:52;10.77;;;2.40;;
32250;SDS011;41295;48.518;9.206;2023-07-31T09:53:54;8.55;;;2.70;;
32250;SDS011;41295;48.518;9.206;2023-07-31T09:55:59;5.78;;;2.50;;
32250;SDS011;41295;48.518;9.206;2023-07-31T09:58:04;6.95;;;2.22;;
32250;SDS011;41295;48.518;9.206;2023-07-31T10:00:08;5.93;;;2.47;;
32250;SDS011;41295;48.518;9.206;2023-07-31T10:02:13;5.95;;;2.38;;
32250;SDS011;41295;48.518;9.206;2023-07-31T10:04:21;6.40;;;2.60;;
32250;SDS011;41295;48.518;9.206;2023-07-31T10:06:29;5.88;;;2.63;;
32250;SDS011;41295;48.518;9.206;2023-07-31T10:08:32;7.90;;;2.50;;
32250;SDS011;41295;48.518;9.206;2023-07-31T10:10:39;9.50;;;2.60;;
32250;SDS011;41295;48.518;9.206;2023-07-31T10:12:45;8.80;;;2.55;;
32250;SDS011;41295;48.518;9.206;2023-07-31T10:14:48;6.57;;;2.50;;
32250;SDS011;41295;48.518;9.206;2023-07-31T10:16:51;5.60;;;2.28;;
32250;SDS011;41295;48.518;9.206;2023-07-31T10:18:54;6.65;;;2.40;;
32250;SDS011;41295;48.518;9.206;2023-07-31T10:20:57;5.30;;;2.33;;
32250;SDS011;41295;48.518;9.206;2023-07-31T10:23:01;6.78;;;2.75;;
32250;SDS011;41295;48.518;9.206;2023-07-31T10:25:05;8.20;;;2.85;;
32250;SDS011;41295;48.518;9.206;2023-07-31T10:27:10;5.50;;;2.63;;
32250;SDS011;41295;48.518;9.206;2023-07-31T10:29:15;7.80;;;2.45;;
32250;SDS011;41295;48.518;9.206;2023-07-31T10:31:19;7.95;;;2.58;;
32250;SDS011;41295;48.518;9.206;2023-07-31T10:33:23;4.95;;;2.30;;
32250;SDS011;41295;48.518;9.206;2023-07-31T10:35:26;9.07;;;2.97;;
32250;SDS011;41295;48.518;9.206;2023-07-31T10:37:30;6.70;;;2.50;;
32250;SDS011;41295;48.518;9.206;2023-07-31T10:39:38;6.97;;;2.90;;
32250;SDS011;41295;48.518;9.206;2023-07-31T10:41:41;6.03;;;2.40;;
32250;SDS011;41295;48.518;9.206;2023-07-31T10:43:45;6.40;;;2.85;;
32250;SDS011;41295;48.518;9.206;2023-07-31T10:45:49;6.47;;;2.65;;
32250;SDS011;41295;48.518;9.206;2023-07-31T10:47:57;6.93;;;2.70;;
32250;SDS011;41295;48.518;9.206;2023-07-31T10:50:12;7.57;;;2.63;;
32250;SDS011;41295;48.518;9.206;2023-07-31T10:52:25;7.45;;;2.67;;
32250;SDS011;41295;48.518;9.206;2023-07-31T10:54:29;6.65;;;2.55;;
32250;SDS011;41295;48.518;9.206;2023-07-31T10:56:35;7.88;;;2.70;;
32250;SDS011;41295;48.518;9.206;2023-07-31T10:58:41;7.10;;;2.53;;
32250;SDS011;41295;48.518;9.206;2023-07-31T11:00:47;8.30;;;2.60;;
32250;SDS011;41295;48.518;9.206;2023-07-31T11:02:58;6.78;;;2.22;;
32250;SDS011;41295;48.518;9.206;2023-07-31T11:05:07;7.65;;;2.58;;
32250;SDS011;41295;48.518;9.206;2023-07-31T11:07:11;5.63;;;2.42;;
32250;SDS011;41295;48.518;9.206;2023-07-31T11:09:14;6.10;;;2.13;;
32250;SDS011;41295;48.518;9.206;2023-07-31T11:11:17;5.35;;;2.30;;
32250;SDS011;41295;48.518;9.206;2023-07-31T11:13:21;9.25;;;2.42;;
32250;SDS011;41295;48.518;9.206;2023-07-31T11:15:26;11.40;;;2.70;;
32250;SDS011;41295;48.518;9.206;2023-07-31T11:17:29;6.22;;;2.17;;
32250;SDS011;41295;48.518;9.206;2023-07-31T11:19:33;4.82;;;2.75;;
32250;SDS011;41295;48.518;9.206;2023-07-31T11:21:35;7.70;;;2.25;;
32250;SDS011;41295;48.518;9.206;2023-07-31T11:23:39;8.23;;;2.13;;
32250;SDS011;41295;48.518;9.206;2023-07-31T11:25:41;4.72;;;2.28;;
32250;SDS011;41295;48.518;9.206;2023-07-31T11:27:44;5.45;;;2.25;;
32250;SDS011;41295;48.518;9.206;2023-07-31T11:29:46;10.68;;;2.53;;
32250;SDS011;41295;48.518;9.206;2023-07-31T11:31:48;5.18;;;2.83;;
32250;SDS011;41295;48.518;9.206;2023-07-31T11:33:58;7.75;;;2.50;;
32250;SDS011;41295;48.518;9.206;2023-07-31T11:36:09;8.40;;;2.42;;
32250;SDS011;41295;48.518;9.206;2023-07-31T11:38:22;5.32;;;2.30;;
32250;SDS011;41295;48.518;9.206;2023-07-31T11:40:26;4.20;;;2.15;;
32250;SDS011;41295;48.518;9.206;2023-07-31T11:42:33;4.85;;;2.72;;
32250;SDS011;41295;48.518;9.206;2023-07-31T11:44:37;7.18;;;2.50;;
32250;SDS011;41295;48.518;9.206;2023-07-31T11:46:41;9.10;;;2.83;;
32250;SDS011;41295;48.518;9.206;2023-07-31T11:48:44;6.72;;;2.67;;
32250;SDS011;41295;48.518;9.206;2023-07-31T11:50:48;5.32;;;2.60;;
32250;SDS011;41295;48.518;9.206;2023-07-31T11:52:54;6.97;;;2.70;;
32250;SDS011;41295;48.518;9.206;2023-07-31T11:55:01;11.25;;;2.83;;
32250;SDS011;41295;48.518;9.206;2023-07-31T11:57:04;5.80;;;2.47;;
32250;SDS011;41295;48.518;9.206;2023-07-31T11:59:08;5.80;;;2.53;;
32250;SDS011;41295;48.518;9.206;2023-07-31T12:01:11;5.97;;;2.40;;
32250;SDS011;41295;48.518;9.206;2023-07-31T12:03:18;6.82;;;2.72;;
32250;SDS011;41295;48.518;9.206;2023-07-31T12:05:21;6.68;;;2.20;;
32250;SDS011;41295;48.518;9.206;2023-07-31T12:07:24;4.07;;;2.38;;
32250;SDS011;41295;48.518;9.206;2023-07-31T12:09:28;8.00;;;2.80;;
32250;SDS011;41295;48.518;9.206;2023-07-31T12:11:31;6.18;;;2.72;;
32250;SDS011;41295;48.518;9.206;2023-07-31T12:13:44;6.07;;;2.33;;
32250;SDS011;41295;48.518;9.206;2023-07-31T12:15:47;4.15;;;2.50;;
32250;SDS011;41295;48.518;9.206;2023-07-31T12:17:50;8.80;;;3.50;;
32250;SDS011;41295;48.518;9.206;2023-07-31T12:19:52;5.93;;;2.72;;
32250;SDS011;41295;48.518;9.206;2023-07-31T12:21:55;7.05;;;3.08;;
32250;SDS011;41295;48.518;9.206;2023-07-31T12:23:58;9.32;;;3.13;;
32250;SDS011;41295;48.518;9.206;2023-07-31T12:26:03;5.40;;;2.50;;
32250;SDS011;41295;48.518;9.206;2023-07-31T12:28:07;4.32;;;2.50;;
32250;SDS011;41295;48.518;9.206;2023-07-31T12:30:26;9.30;;;3.13;;
32250;SDS011;41295;48.518;9.206;2023-07-31T12:32:29;4.47;;;2.60;;
32250;SDS011;41295;48.518;9.206;2023-07-31T12:34:35;7.22;;;3.15;;
32250;SDS011;41295;48.518;9.206;2023-07-31T12:36:44;6.50;;;2.78;;
32250;SDS011;41295;48.518;9.206;2023-07-31T12:38:47;9.80;;;3.03;;